Time;durP1;ratioP1;P1;durP2;ratioP2;P2;SDS_P1;SDS_P2;PMS_P1;PMS_P2;Temp;Humidity;BMP_temperature;BMP_pressure;BME280_temperature;BME280_humidity;BME280_pressure;Samples;Min_cycle;Max_cycle;Signal;HPM_P1;HPM_P2
2023/10/29 00:02:01;;;;;;;;;;;11.60;92.20;;;;;;5096212;28;19982;-66
2023/10/29 00:04:36;;;;;;;;;;;11.60;92.20;;;;;;5097788;28;20302;-66
2023/10/29 00:07:09;;;;;;;;;;;11.60;92.30;;;;;;5096040;28;19950;-64
2023/10/29 00:09:42;;;;;;;;;;;11.60;92.20;;;;;;5099907;28;19938;-65
2023/10/29 00:12:15;;;;;;;;;;;11.60;92.20;;;;;;5099834;28;19928;-65
2023/10/29 00:14:48;;;;;;;;;;;11.60;92.30;;;;;;5097162;28;19934;-65
2023/10/29 00:17:22;;;;;;;;;;;11.60;92.30;;;;;;5096104;28;19924;-66
2023/10/29 00:19:56;;;;;;;;;;;11.60;92.20;;;;;;5099780;28;19923;-65
2023/10/29 00:22:29;;;;;;;;;;;11.70;92.20;;;;;;5095435;28;20385;-66
2023/10/29 00:24:56;;;;;;;;;;;11.60;92.20;;;;;;5097410;28;20015;-65
2023/10/29 00:27:29;;;;;;;;;;;11.60;92.30;;;;;;5094955;28;20397;-65
2023/10/29 00:30:02;;;;;;;;;;;11.60;92.20;;;;;;5097822;28;19936;-66
2023/10/29 00:32:37;;;;;;;;;;;11.60;92.30;;;;;;5105663;27;19928;-65
2023/10/29 00:35:11;;;;;;;;;;;11.60;92.20;;;;;;5094827;28;19928;-65
2023/10/29 00:37:44;;;;;;;;;;;11.60;92.20;;;;;;5095548;28;19928;-65
2023/10/29 00:40:17;;;;;;;;;;;11.60;92.30;;;;;;5095404;27;20505;-64
2023/10/29 00:42:50;;;;;;;;;;;11.60;92.30;;;;;;5099469;28;19923;-66
2023/10/29 00:45:23;;;;;;;;;;;11.60;92.40;;;;;;5094715;28;20374;-65
2023/10/29 00:47:58;;;;;;;;;;;11.60;92.30;;;;;;5091708;28;19924;-64
2023/10/29 00:50:32;;;;;;;;;;;11.60;92.30;;;;;;5095527;28;20295;-65
2023/10/29 00:53:05;;;;;;;;;;;11.60;92.20;;;;;;5092775;28;19971;-65
2023/10/29 00:55:39;;;;;;;;;;;11.60;92.30;;;;;;5096844;28;20025;-65
2023/10/29 00:58:13;;;;;;;;;;;11.60;92.30;;;;;;5096899;28;19934;-65
2023/10/29 01:00:46;;;;;;;;;;;11.60;92.40;;;;;;5092930;28;19934;-66
2023/10/29 01:03:21;;;;;;;;;;;11.60;92.30;;;;;;5095899;28;19932;-64
2023/10/29 01:05:56;;;;;;;;;;;11.60;92.30;;;;;;5095249;28;20435;-60
2023/10/29 01:08:29;;;;;;;;;;;11.60;92.20;;;;;;5093480;27;19932;-61
2023/10/29 01:11:04;;;;;;;;;;;11.60;92.30;;;;;;5083728;28;19924;-60
2023/10/29 01:13:38;;;;;;;;;;;11.50;92.40;;;;;;5089604;28;19973;-61
2023/10/29 01:16:12;;;;;;;;;;;11.60;92.40;;;;;;5099537;28;19947;-60
2023/10/29 01:18:47;;;;;;;;;;;11.60;92.40;;;;;;5083555;28;19932;-60
2023/10/29 01:21:20;;;;;;;;;;;11.50;92.50;;;;;;5097334;28;19936;-61
2023/10/29 01:23:53;;;;;;;;;;;11.60;92.30;;;;;;5095712;27;19938;-62
2023/10/29 01:26:26;;;;;;;;;;;11.60;92.30;;;;;;5108656;27;20022;-61
2023/10/29 01:28:59;;;;;;;;;;;11.60;92.40;;;;;;5084291;28;19928;-61
2023/10/29 01:31:32;;;;;;;;;;;11.60;92.30;;;;;;5084803;28;19927;-60
2023/10/29 01:34:06;;;;;;;;;;;11.60;92.30;;;;;;5097699;28;19924;-60
2023/10/29 01:36:41;;;;;;;;;;;11.60;92.30;;;;;;5095974;28;19928;-60
2023/10/29 01:39:14;;;;;;;;;;;11.60;92.30;;;;;;5094478;28;19924;-60
2023/10/29 01:41:55;;;;;;;;;;;11.60;92.40;;;;;;5107880;27;19935;-61
2023/10/29 01:44:28;;;;;;;;;;;11.60;92.40;;;;;;5093139;28;21327;-60
2023/10/29 01:47:01;;;;;;;;;;;11.60;92.30;;;;;;5087389;28;20294;-61
2023/10/29 01:49:36;;;;;;;;;;;11.60;92.30;;;;;;5098450;28;19924;-61
2023/10/29 01:52:09;;;;;;;;;;;11.60;92.30;;;;;;5115747;27;19924;-60
2023/10/29 01:54:43;;;;;;;;;;;11.60;92.30;;;;;;5108461;27;20393;-60
2023/10/29 01:57:16;;;;;;;;;;;11.60;92.20;;;;;;5088469;28;19939;-60
2023/10/29 01:59:49;;;;;;;;;;;11.60;92.20;;;;;;5077551;28;19927;-61
2023/10/29 02:02:22;;;;;;;;;;;11.60;92.30;;;;;;5109715;27;19947;-60
2023/10/29 02:04:56;;;;;;;;;;;11.60;92.40;;;;;;5091893;28;19932;-61
2023/10/29 02:07:30;;;;;;;;;;;11.60;92.40;;;;;;5090042;28;19963;-61
2023/10/29 02:10:03;;;;;;;;;;;11.60;92.30;;;;;;5104938;27;19923;-60
2023/10/29 02:12:36;;;;;;;;;;;11.60;92.40;;;;;;5096817;27;19935;-61
2023/10/29 02:15:09;;;;;;;;;;;11.60;92.30;;;;;;5088330;28;19932;-61
2023/10/29 02:17:42;;;;;;;;;;;11.60;92.40;;;;;;5097282;28;20015;-65
2023/10/29 02:20:17;;;;;;;;;;;11.60;92.40;;;;;;5097832;28;19924;-64
2023/10/29 02:22:51;;;;;;;;;;;11.60;92.40;;;;;;5096384;28;19932;-64
2023/10/29 02:25:25;;;;;;;;;;;11.60;92.50;;;;;;5095366;28;19928;-65
2023/10/29 02:27:52;;;;;;;;;;;11.60;92.50;;;;;;5098178;28;19942;-66
2023/10/29 02:30:25;;;;;;;;;;;11.60;92.30;;;;;;5083036;28;19934;-65
2023/10/29 02:32:58;;;;;;;;;;;11.60;92.50;;;;;;5094181;28;20383;-66
2023/10/29 02:35:31;;;;;;;;;;;11.50;92.40;;;;;;5093318;28;19935;-65
2023/10/29 02:38:05;;;;;;;;;;;11.50;92.50;;;;;;5091699;28;19967;-65
2023/10/29 02:40:39;;;;;;;;;;;11.60;92.50;;;;;;5095641;28;19924;-67
2023/10/29 02:43:13;;;;;;;;;;;11.50;92.50;;;;;;5091231;28;19936;-66
2023/10/29 02:45:46;;;;;;;;;;;11.50;92.60;;;;;;5092377;28;20367;-65
2023/10/29 02:48:20;;;;;;;;;;;11.50;92.50;;;;;;5088745;28;20393;-64
2023/10/29 02:50:54;;;;;;;;;;;11.60;92.50;;;;;;5096281;28;20032;-64
2023/10/29 02:53:29;;;;;;;;;;;11.60;92.50;;;;;;5100147;28;19930;-65
2023/10/29 02:56:02;;;;;;;;;;;11.60;92.40;;;;;;5096968;28;19924;-66
2023/10/29 02:58:36;;;;;;;;;;;11.60;92.30;;;;;;5099910;28;20014;-64
2023/10/29 03:01:09;;;;;;;;;;;11.50;92.50;;;;;;5096574;28;19973;-65
2023/10/29 03:03:44;;;;;;;;;;;11.60;92.40;;;;;;5111471;27;19927;-66
2023/10/29 03:06:17;;;;;;;;;;;11.60;92.30;;;;;;5100223;28;19931;-65
2023/10/29 03:08:51;;;;;;;;;;;11.60;92.30;;;;;;5100241;27;20016;-64
2023/10/29 03:11:26;;;;;;;;;;;11.60;92.30;;;;;;5100395;28;20018;-65
2023/10/29 03:13:59;;;;;;;;;;;11.50;92.20;;;;;;5100799;27;19923;-65
2023/10/29 03:16:33;;;;;;;;;;;11.60;92.20;;;;;;5100698;28;20399;-64
2023/10/29 03:19:06;;;;;;;;;;;11.60;92.10;;;;;;5114978;27;19931;-65
2023/10/29 03:21:39;;;;;;;;;;;11.60;92.20;;;;;;5098414;28;20460;-65
2023/10/29 03:24:15;;;;;;;;;;;11.60;92.10;;;;;;5099941;28;19981;-65
2023/10/29 03:26:44;;;;;;;;;;;11.60;92.10;;;;;;5118254;27;19928;-69
2023/10/29 03:29:17;;;;;;;;;;;11.60;92.00;;;;;;5102926;28;19931;-71
2023/10/29 03:31:51;;;;;;;;;;;11.50;92.00;;;;;;5093446;28;19928;-69
2023/10/29 03:34:25;;;;;;;;;;;11.60;92.10;;;;;;5100310;28;20026;-71
2023/10/29 03:36:58;;;;;;;;;;;11.60;92.00;;;;;;5095434;28;19932;-70
2023/10/29 03:39:32;;;;;;;;;;;11.60;92.10;;;;;;5099867;28;20871;-69
2023/10/29 03:42:07;;;;;;;;;;;11.60;92.10;;;;;;5083340;28;19928;-68
2023/10/29 03:44:40;;;;;;;;;;;11.60;92.10;;;;;;5102487;27;19964;-69
2023/10/29 03:47:13;;;;;;;;;;;11.60;92.10;;;;;;5112380;27;19927;-72
2023/10/29 03:49:46;;;;;;;;;;;11.60;92.20;;;;;;5115566;27;19924;-68
2023/10/29 03:52:19;;;;;;;;;;;11.60;92.30;;;;;;5098027;28;19928;-67
2023/10/29 03:54:53;;;;;;;;;;;11.60;92.20;;;;;;5100322;28;19928;-68
2023/10/29 03:57:27;;;;;;;;;;;11.60;92.20;;;;;;5098752;28;19967;-67
2023/10/29 04:00:00;;;;;;;;;;;11.60;92.10;;;;;;5102223;28;20023;-69
2023/10/29 04:02:38;;;;;;;;;;;11.60;92.20;;;;;;5096964;28;20010;-70
2023/10/29 04:05:11;;;;;;;;;;;11.60;92.20;;;;;;5099550;27;20015;-66
2023/10/29 04:07:46;;;;;;;;;;;11.50;92.30;;;;;;5099987;27;19924;-68
2023/10/29 04:10:20;;;;;;;;;;;11.50;92.30;;;;;;5097288;28;19931;-68
2023/10/29 04:12:54;;;;;;;;;;;11.50;92.30;;;;;;5102411;28;19984;-68
2023/10/29 04:15:27;;;;;;;;;;;11.50;92.30;;;;;;5099854;28;19924;-68
2023/10/29 04:18:00;;;;;;;;;;;11.50;92.30;;;;;;5103814;28;19938;-70
2023/10/29 04:20:33;;;;;;;;;;;11.50;92.30;;;;;;5098762;28;19931;-70
2023/10/29 04:23:06;;;;;;;;;;;11.50;92.30;;;;;;5100217;28;20416;-68
2023/10/29 04:25:43;;;;;;;;;;;11.50;92.30;;;;;;5100305;28;19934;-70
2023/10/29 04:28:16;;;;;;;;;;;11.50;92.30;;;;;;5102557;28;19931;-70
2023/10/29 04:30:49;;;;;;;;;;;11.50;92.20;;;;;;5101291;28;19928;-68
2023/10/29 04:33:23;;;;;;;;;;;11.50;92.30;;;;;;5099262;27;19924;-68
2023/10/29 04:35:56;;;;;;;;;;;11.50;92.30;;;;;;5099456;27;19989;-60
2023/10/29 04:38:29;;;;;;;;;;;11.50;92.20;;;;;;5093200;28;19935;-69
2023/10/29 04:41:04;;;;;;;;;;;11.50;92.20;;;;;;5098061;28;19928;-69
2023/10/29 04:43:37;;;;;;;;;;;11.50;92.20;;;;;;5101503;27;19928;-69
2023/10/29 04:46:11;;;;;;;;;;;11.50;92.20;;;;;;5092714;28;19931;-70
2023/10/29 04:48:44;;;;;;;;;;;11.50;92.20;;;;;;5099197;28;19928;-69
2023/10/29 04:51:17;;;;;;;;;;;11.50;92.10;;;;;;5098261;27;19928;-70
2023/10/29 04:53:50;;;;;;;;;;;11.50;92.10;;;;;;5100390;28;19928;-69
2023/10/29 04:56:33;;;;;;;;;;;11.50;92.10;;;;;;5097031;28;19966;-70
2023/10/29 04:59:06;;;;;;;;;;;11.50;92.30;;;;;;5102228;28;19924;-69
2023/10/29 05:01:39;;;;;;;;;;;11.50;92.20;;;;;;5099520;28;20375;-69
2023/10/29 05:04:12;;;;;;;;;;;11.50;92.30;;;;;;5096993;28;19924;-70
2023/10/29 05:06:45;;;;;;;;;;;11.50;92.20;;;;;;5106201;27;19969;-70
2023/10/29 05:09:18;;;;;;;;;;;11.50;92.40;;;;;;5101480;27;19947;-71
2023/10/29 05:11:52;;;;;;;;;;;11.50;92.40;;;;;;5098619;27;19947;-70
2023/10/29 05:14:25;;;;;;;;;;;11.40;92.30;;;;;;5098302;28;19928;-70
2023/10/29 05:16:58;;;;;;;;;;;11.50;92.30;;;;;;5094496;28;19924;-71
2023/10/29 05:19:31;;;;;;;;;;;11.50;92.50;;;;;;5102094;28;20015;-69
2023/10/29 05:22:04;;;;;;;;;;;11.40;92.50;;;;;;5098987;28;19927;-69
2023/10/29 05:24:37;;;;;;;;;;;11.40;92.50;;;;;;5099203;27;19981;-70
2023/10/29 05:27:12;;;;;;;;;;;11.50;92.50;;;;;;5097946;28;20390;-69
2023/10/29 05:29:45;;;;;;;;;;;11.50;92.50;;;;;;5083712;28;19936;-68
2023/10/29 05:32:18;;;;;;;;;;;11.50;92.40;;;;;;5097695;28;19969;-69
2023/10/29 05:34:51;;;;;;;;;;;11.50;92.50;;;;;;5098857;27;20374;-69
2023/10/29 05:37:24;;;;;;;;;;;11.50;92.50;;;;;;5096366;28;20394;-69
2023/10/29 05:39:51;;;;;;;;;;;11.50;92.30;;;;;;5099643;28;19928;-70
2023/10/29 05:42:26;;;;;;;;;;;11.50;92.40;;;;;;5101270;28;20012;-69
2023/10/29 05:44:59;;;;;;;;;;;11.50;92.40;;;;;;5099418;28;19932;-70
2023/10/29 05:47:33;;;;;;;;;;;11.50;92.50;;;;;;5097038;28;19928;-60
2023/10/29 05:50:07;;;;;;;;;;;11.50;92.60;;;;;;5095798;28;19924;-62
2023/10/29 05:52:40;;;;;;;;;;;11.50;92.70;;;;;;5099446;28;19924;-60
2023/10/29 05:55:13;;;;;;;;;;;11.50;92.60;;;;;;5099544;28;20011;-59
2023/10/29 05:57:49;;;;;;;;;;;11.50;92.60;;;;;;5101883;27;19923;-62
2023/10/29 06:00:22;;;;;;;;;;;11.50;92.60;;;;;;5096865;28;20279;-60
2023/10/29 06:02:55;;;;;;;;;;;11.50;92.70;;;;;;5100375;28;19924;-60
2023/10/29 06:05:28;;;;;;;;;;;11.50;92.60;;;;;;5097984;28;19973;-60
2023/10/29 06:08:03;;;;;;;;;;;11.50;92.60;;;;;;5096792;28;19924;-60
2023/10/29 06:10:36;;;;;;;;;;;11.50;92.60;;;;;;5098463;28;20015;-61
2023/10/29 06:13:11;;;;;;;;;;;11.50;92.70;;;;;;5095746;27;19977;-61
2023/10/29 06:15:44;;;;;;;;;;;11.50;92.60;;;;;;5100801;28;19924;-60
2023/10/29 06:18:18;;;;;;;;;;;11.50;92.60;;;;;;5080966;28;20366;-61
2023/10/29 06:20:45;;;;;;;;;;;11.50;92.60;;;;;;5098816;28;19928;-60
2023/10/29 06:23:18;;;;;;;;;;;11.50;92.60;;;;;;5098021;28;19928;-60
2023/10/29 06:25:51;;;;;;;;;;;11.50;92.50;;;;;;5096918;28;19968;-60
2023/10/29 06:28:26;;;;;;;;;;;11.50;92.70;;;;;;5102251;28;20011;-60
2023/10/29 06:30:59;;;;;;;;;;;11.50;92.60;;;;;;5093504;28;19928;-62
2023/10/29 06:33:32;;;;;;;;;;;11.50;92.60;;;;;;5097295;28;20378;-60
2023/10/29 06:36:05;;;;;;;;;;;11.50;92.60;;;;;;5095373;28;19970;-61
2023/10/29 06:38:39;;;;;;;;;;;11.50;92.60;;;;;;5101255;28;19923;-60
2023/10/29 06:41:11;;;;;;;;;;;11.50;92.70;;;;;;5097355;28;19924;-60
2023/10/29 06:43:46;;;;;;;;;;;11.50;92.60;;;;;;5100056;28;19971;-59
2023/10/29 06:46:19;;;;;;;;;;;11.60;92.50;;;;;;5095906;28;19936;-61
2023/10/29 06:48:46;;;;;;;;;;;11.60;92.50;;;;;;5098443;28;19927;-60
2023/10/29 06:51:20;;;;;;;;;;;11.60;92.50;;;;;;5100428;28;19973;-59
2023/10/29 06:53:53;;;;;;;;;;;11.60;92.50;;;;;;5100160;28;19928;-60
2023/10/29 06:56:27;;;;;;;;;;;11.60;92.60;;;;;;5095047;27;19932;-65
2023/10/29 06:59:02;;;;;;;;;;;11.60;92.50;;;;;;5102201;28;19969;-65
2023/10/29 07:01:35;;;;;;;;;;;11.70;92.60;;;;;;5097047;28;19924;-63
2023/10/29 07:04:08;;;;;;;;;;;11.70;92.70;;;;;;5095980;28;19931;-65
2023/10/29 07:06:35;;;;;;;;;;;11.70;92.60;;;;;;5097868;28;19923;-63
2023/10/29 07:09:08;;;;;;;;;;;11.70;92.60;;;;;;5097949;28;19924;-65
2023/10/29 07:11:42;;;;;;;;;;;11.70;92.60;;;;;;5097650;28;19928;-65
2023/10/29 07:14:17;;;;;;;;;;;11.70;92.70;;;;;;5094270;28;19932;-64
2023/10/29 07:16:50;;;;;;;;;;;11.70;92.60;;;;;;5097069;28;19947;-64
2023/10/29 07:19:17;;;;;;;;;;;11.70;92.50;;;;;;5099739;28;20495;-63
2023/10/29 07:21:50;;;;;;;;;;;11.80;92.80;;;;;;5096247;28;19928;-65
2023/10/29 07:24:23;;;;;;;;;;;11.80;92.80;;;;;;5098557;28;19928;-64
2023/10/29 07:26:56;;;;;;;;;;;11.90;92.90;;;;;;5098665;28;20027;-64
2023/10/29 07:29:31;;;;;;;;;;;11.90;92.80;;;;;;5098431;28;19932;-64
2023/10/29 07:32:05;;;;;;;;;;;11.90;92.70;;;;;;5096123;28;19924;-64
2023/10/29 07:34:38;;;;;;;;;;;11.90;92.80;;;;;;5098619;28;20327;-63
2023/10/29 07:37:12;;;;;;;;;;;11.90;92.60;;;;;;5097667;28;19924;-65
2023/10/29 07:39:45;;;;;;;;;;;11.80;92.70;;;;;;5098435;28;19928;-66
2023/10/29 07:42:18;;;;;;;;;;;11.90;92.80;;;;;;5096418;28;20007;-63
2023/10/29 07:44:53;;;;;;;;;;;11.90;92.80;;;;;;5098931;28;19928;-64
2023/10/29 07:47:26;;;;;;;;;;;11.90;92.70;;;;;;5098100;28;20351;-64
2023/10/29 07:49:59;;;;;;;;;;;11.90;92.60;;;;;;5099038;28;19928;-64
2023/10/29 07:52:39;;;;;;;;;;;11.90;92.70;;;;;;5103937;28;19928;-65
2023/10/29 07:55:12;;;;;;;;;;;11.90;92.80;;;;;;5101723;28;19958;-65
2023/10/29 07:57:45;;;;;;;;;;;11.90;92.80;;;;;;5100545;28;20023;-65
2023/10/29 08:00:20;;;;;;;;;;;11.90;92.70;;;;;;5102864;28;19928;-65
2023/10/29 08:02:53;;;;;;;;;;;11.90;92.80;;;;;;5103330;28;19954;-64
2023/10/29 08:05:26;;;;;;;;;;;11.90;92.80;;;;;;5089404;27;19931;-65
2023/10/29 08:08:01;;;;;;;;;;;11.90;92.80;;;;;;5099702;28;19924;-63
2023/10/29 08:10:34;;;;;;;;;;;12.00;92.90;;;;;;5099956;28;20444;-62
2023/10/29 08:13:10;;;;;;;;;;;12.00;92.80;;;;;;5102071;28;20381;-62
2023/10/29 08:15:44;;;;;;;;;;;12.00;92.80;;;;;;5098510;28;19942;-62
2023/10/29 08:18:17;;;;;;;;;;;12.00;92.80;;;;;;5103101;28;20012;-62
2023/10/29 08:20:44;;;;;;;;;;;12.10;92.90;;;;;;5102005;28;19923;-62
2023/10/29 08:23:17;;;;;;;;;;;12.00;92.90;;;;;;5103205;28;20372;-62
2023/10/29 08:25:50;;;;;;;;;;;12.10;92.90;;;;;;5096534;28;19932;-62
2023/10/29 08:28:25;;;;;;;;;;;12.20;93.00;;;;;;5094241;28;19931;-62
2023/10/29 08:31:00;;;;;;;;;;;12.20;92.90;;;;;;5102280;28;20398;-61
2023/10/29 08:33:33;;;;;;;;;;;12.20;92.80;;;;;;5097990;27;19924;-62
2023/10/29 08:36:07;;;;;;;;;;;12.20;92.90;;;;;;5095177;28;19940;-62
2023/10/29 08:38:40;;;;;;;;;;;12.20;92.90;;;;;;5097350;28;20280;-62
2023/10/29 08:41:14;;;;;;;;;;;12.20;92.90;;;;;;5096364;28;19928;-62
2023/10/29 08:43:41;;;;;;;;;;;12.30;92.70;;;;;;5097003;27;19980;-63
2023/10/29 08:46:16;;;;;;;;;;;12.30;92.70;;;;;;5094184;28;19924;-62
2023/10/29 08:48:56;;;;;;;;;;;12.40;92.60;;;;;;5095017;27;19959;-63
2023/10/29 08:51:29;;;;;;;;;;;12.40;92.60;;;;;;5099794;28;19932;-63
2023/10/29 08:54:03;;;;;;;;;;;12.40;92.50;;;;;;5100345;28;19931;-63
2023/10/29 08:56:37;;;;;;;;;;;12.40;92.50;;;;;;5092359;28;19969;-62
2023/10/29 08:59:10;;;;;;;;;;;12.50;92.50;;;;;;5101242;28;19924;-62
2023/10/29 09:01:45;;;;;;;;;;;12.50;92.50;;;;;;5093612;27;19932;-63
2023/10/29 09:04:20;;;;;;;;;;;12.50;92.50;;;;;;5098870;28;20291;-63
2023/10/29 09:06:52;;;;;;;;;;;12.50;92.60;;;;;;5097174;28;20389;-62
2023/10/29 09:09:25;;;;;;;;;;;12.50;92.60;;;;;;5096211;28;19928;-62
2023/10/29 09:11:58;;;;;;;;;;;12.60;92.50;;;;;;5096604;28;19939;-62
2023/10/29 09:14:31;;;;;;;;;;;12.60;92.40;;;;;;5100549;28;19934;-62
2023/10/29 09:17:06;;;;;;;;;;;12.60;92.40;;;;;;5096282;28;19927;-63
2023/10/29 09:19:40;;;;;;;;;;;12.70;92.50;;;;;;5095220;28;19993;-63
2023/10/29 09:22:12;;;;;;;;;;;12.70;92.40;;;;;;5098759;28;19980;-63
2023/10/29 09:24:45;;;;;;;;;;;12.80;92.40;;;;;;5098242;27;19924;-63
2023/10/29 09:27:18;;;;;;;;;;;12.90;92.70;;;;;;5097645;27;19935;-62
2023/10/29 09:29:52;;;;;;;;;;;12.90;92.50;;;;;;5095379;28;19928;-62
2023/10/29 09:32:26;;;;;;;;;;;12.90;92.50;;;;;;5100403;28;20299;-62
2023/10/29 09:34:59;;;;;;;;;;;12.90;92.40;;;;;;5098334;27;19924;-62
2023/10/29 09:37:34;;;;;;;;;;;12.90;92.30;;;;;;5095341;28;19932;-63
2023/10/29 09:40:13;;;;;;;;;;;12.90;92.40;;;;;;5095125;27;19936;-62
2023/10/29 09:42:51;;;;;;;;;;;12.90;92.40;;;;;;5099512;28;19935;-63
2023/10/29 09:45:25;;;;;;;;;;;12.90;92.40;;;;;;5090900;28;19932;-63
2023/10/29 09:48:00;;;;;;;;;;;13.00;92.50;;;;;;5094539;28;19948;-63
2023/10/29 09:50:34;;;;;;;;;;;13.00;92.40;;;;;;5095106;28;19930;-62
2023/10/29 09:53:08;;;;;;;;;;;13.00;92.60;;;;;;5088350;28;20494;-62
2023/10/29 09:55:42;;;;;;;;;;;13.00;92.60;;;;;;5094687;28;20443;-63
2023/10/29 09:58:16;;;;;;;;;;;13.00;92.60;;;;;;5095974;28;19927;-63
2023/10/29 10:00:50;;;;;;;;;;;13.10;92.60;;;;;;5096488;28;19966;-63
2023/10/29 10:03:25;;;;;;;;;;;13.10;92.60;;;;;;5097603;28;19973;-63
2023/10/29 10:05:59;;;;;;;;;;;13.10;92.40;;;;;;5097073;28;20410;-63
2023/10/29 10:08:33;;;;;;;;;;;13.10;92.40;;;;;;5085207;27;20345;-61
2023/10/29 10:11:19;;;;;;;;;;;13.10;92.40;;;;;;5090728;28;19934;-62
2023/10/29 10:13:52;;;;;;;;;;;13.20;92.30;;;;;;5098027;28;20014;-62
2023/10/29 10:16:25;;;;;;;;;;;13.20;92.30;;;;;;5096854;28;19928;-63
2023/10/29 10:19:00;;;;;;;;;;;13.20;92.20;;;;;;5098880;28;20452;-62
2023/10/29 10:21:40;;;;;;;;;;;13.20;92.20;;;;;;5095786;28;19993;-62
2023/10/29 10:24:14;;;;;;;;;;;13.20;92.10;;;;;;5097170;28;19930;-62
2023/10/29 10:26:48;;;;;;;;;;;13.20;92.10;;;;;;5098015;28;20294;-69
2023/10/29 10:29:31;;;;;;;;;;;13.20;92.00;;;;;;5099097;28;20337;-69
2023/10/29 10:32:06;;;;;;;;;;;13.20;92.00;;;;;;5095610;28;19927;-69
2023/10/29 10:34:51;;;;;;;;;;;13.20;92.00;;;;;;5097576;28;20024;-69
2023/10/29 10:37:25;;;;;;;;;;;13.20;92.30;;;;;;5096953;28;20046;-69
2023/10/29 10:39:58;;;;;;;;;;;13.30;92.30;;;;;;5098055;28;19959;-69
2023/10/29 10:42:31;;;;;;;;;;;13.20;92.40;;;;;;5097481;28;19927;-70
2023/10/29 10:45:05;;;;;;;;;;;13.20;92.30;;;;;;5091051;28;19939;-70
2023/10/29 10:47:39;;;;;;;;;;;13.30;92.30;;;;;;5097999;28;19931;-71
2023/10/29 10:50:13;;;;;;;;;;;13.30;92.20;;;;;;5099651;28;20375;-70
2023/10/29 10:52:48;;;;;;;;;;;13.40;92.10;;;;;;5096517;28;19943;-70
2023/10/29 10:55:22;;;;;;;;;;;13.50;92.10;;;;;;5097808;28;20010;-71
2023/10/29 10:58:03;;;;;;;;;;;13.50;92.10;;;;;;5090795;28;20016;-70
2023/10/29 11:00:36;;;;;;;;;;;13.60;92.10;;;;;;5092284;28;19967;-70
2023/10/29 11:03:10;;;;;;;;;;;13.60;91.90;;;;;;5098986;28;19923;-70
2023/10/29 11:05:46;;;;;;;;;;;13.60;92.00;;;;;;5093074;28;20032;-71
2023/10/29 11:08:20;;;;;;;;;;;13.60;92.10;;;;;;5093606;28;20395;-70
2023/10/29 11:10:54;;;;;;;;;;;13.60;92.00;;;;;;5096504;28;19928;-70
2023/10/29 11:13:28;;;;;;;;;;;13.60;92.00;;;;;;5097167;28;20367;-69
2023/10/29 11:16:01;;;;;;;;;;;13.60;92.10;;;;;;5098590;28;20370;-70
2023/10/29 11:18:34;;;;;;;;;;;13.60;92.20;;;;;;5096730;28;19931;-70
2023/10/29 11:21:09;;;;;;;;;;;13.60;92.20;;;;;;5100243;28;19932;-70
2023/10/29 11:23:43;;;;;;;;;;;13.60;92.20;;;;;;5104230;28;19928;-70
2023/10/29 11:26:24;;;;;;;;;;;13.60;92.20;;;;;;5098892;28;19924;-70
2023/10/29 11:28:57;;;;;;;;;;;13.70;92.20;;;;;;5100790;27;19924;-69
2023/10/29 11:31:31;;;;;;;;;;;13.70;92.10;;;;;;5103046;28;20022;-70
2023/10/29 11:34:23;;;;;;;;;;;13.70;92.20;;;;;;5101139;28;19935;-70
2023/10/29 11:36:58;;;;;;;;;;;13.70;92.10;;;;;;5103514;27;19927;-62
2023/10/29 11:39:31;;;;;;;;;;;13.70;92.10;;;;;;5103281;28;20319;-61
2023/10/29 11:42:23;;;;;;;;;;;13.70;92.10;;;;;;5103378;28;19976;-60
2023/10/29 11:45:15;;;;;;;;;;;13.70;92.10;;;;;;5101900;28;19973;-61
2023/10/29 11:48:03;;;;;;;;;;;13.70;92.00;;;;;;5098181;28;19928;-60
2023/10/29 11:50:37;;;;;;;;;;;13.70;91.90;;;;;;5099790;28;19953;-60
2023/10/29 11:53:25;;;;;;;;;;;13.70;91.80;;;;;;5097255;28;19928;-60
2023/10/29 11:55:59;;;;;;;;;;;13.70;91.70;;;;;;5086574;28;19923;-61
2023/10/29 11:58:33;;;;;;;;;;;13.70;91.60;;;;;;5102385;27;20015;-61
2023/10/29 12:01:06;;;;;;;;;;;13.70;91.60;;;;;;5101051;28;19932;-61
2023/10/29 12:03:55;;;;;;;;;;;13.70;91.60;;;;;;5114063;27;20012;-60
2023/10/29 12:06:41;;;;;;;;;;;13.60;91.70;;;;;;5098977;28;20290;-61
2023/10/29 12:09:17;;;;;;;;;;;13.60;91.80;;;;;;5102958;28;19934;-61
2023/10/29 12:11:52;;;;;;;;;;;13.50;91.70;;;;;;5099905;28;19928;-60
2023/10/29 12:14:40;;;;;;;;;;;13.50;91.50;;;;;;5096727;28;19928;-60
2023/10/29 12:17:14;;;;;;;;;;;13.40;91.60;;;;;;5098686;28;20409;-60
2023/10/29 12:19:48;;;;;;;;;;;13.40;91.60;;;;;;5101323;28;19928;-61
2023/10/29 12:22:21;;;;;;;;;;;13.40;91.70;;;;;;5100181;28;19931;-60
2023/10/29 12:24:58;;;;;;;;;;;13.40;91.90;;;;;;5101268;28;19935;-61
2023/10/29 12:27:32;;;;;;;;;;;13.40;91.80;;;;;;5098903;28;19924;-61
2023/10/29 12:30:05;;;;;;;;;;;13.40;91.90;;;;;;5099575;28;19928;-60
2023/10/29 12:32:39;;;;;;;;;;;13.40;91.90;;;;;;5097570;28;19951;-61
2023/10/29 12:35:26;;;;;;;;;;;13.40;92.10;;;;;;5098118;28;19969;-61
2023/10/29 12:37:59;;;;;;;;;;;13.40;92.10;;;;;;5099786;28;20393;-61
2023/10/29 12:40:34;;;;;;;;;;;13.40;92.10;;;;;;5099503;28;20382;-60
2023/10/29 12:43:07;;;;;;;;;;;13.40;92.00;;;;;;5100594;28;19928;-60
2023/10/29 12:45:42;;;;;;;;;;;13.40;92.00;;;;;;5097664;28;19949;-61
2023/10/29 12:48:16;;;;;;;;;;;13.40;92.00;;;;;;5098347;28;19924;-69
2023/10/29 12:50:50;;;;;;;;;;;13.50;92.10;;;;;;5097550;28;19924;-71
2023/10/29 12:53:24;;;;;;;;;;;13.40;92.10;;;;;;5100262;28;19939;-69
2023/10/29 12:55:59;;;;;;;;;;;13.40;92.20;;;;;;5102983;27;20027;-70
2023/10/29 12:58:33;;;;;;;;;;;13.40;92.20;;;;;;5100022;28;19934;-69
2023/10/29 13:01:07;;;;;;;;;;;13.40;92.30;;;;;;5095395;28;19924;-69
2023/10/29 13:03:40;;;;;;;;;;;13.40;92.30;;;;;;5098884;28;19923;-69
2023/10/29 13:06:13;;;;;;;;;;;13.40;92.30;;;;;;5102187;28;19935;-69
2023/10/29 13:08:47;;;;;;;;;;;13.40;92.30;;;;;;5096254;28;20387;-70
2023/10/29 13:11:21;;;;;;;;;;;13.40;92.20;;;;;;5099425;28;20013;-70
2023/10/29 13:13:48;;;;;;;;;;;13.30;92.20;;;;;;5098199;28;20471;-71
2023/10/29 13:16:21;;;;;;;;;;;13.30;92.20;;;;;;5093140;28;19953;-69
2023/10/29 13:18:55;;;;;;;;;;;13.20;92.10;;;;;;5100282;28;20015;-70
2023/10/29 13:21:29;;;;;;;;;;;13.20;92.20;;;;;;5098272;27;20019;-70
2023/10/29 13:24:03;;;;;;;;;;;13.20;92.10;;;;;;5100795;28;19924;-70
2023/10/29 13:26:40;;;;;;;;;;;13.20;92.20;;;;;;5097474;28;19936;-70
2023/10/29 13:29:14;;;;;;;;;;;13.10;92.40;;;;;;5100780;28;19935;-70
2023/10/29 13:31:47;;;;;;;;;;;13.20;92.30;;;;;;5100387;28;20414;-70
2023/10/29 13:34:21;;;;;;;;;;;13.10;92.20;;;;;;5098913;28;20020;-70
2023/10/29 13:36:54;;;;;;;;;;;13.10;92.30;;;;;;5100613;27;19943;-70
2023/10/29 13:39:28;;;;;;;;;;;13.10;92.40;;;;;;5098101;28;19928;-70
2023/10/29 13:42:04;;;;;;;;;;;13.10;92.30;;;;;;5099582;28;20285;-71
2023/10/29 13:44:38;;;;;;;;;;;13.10;92.30;;;;;;5097381;28;20382;-71
2023/10/29 13:47:12;;;;;;;;;;;13.10;92.30;;;;;;5089805;28;21828;-70
2023/10/29 13:49:46;;;;;;;;;;;13.10;92.30;;;;;;5100658;27;19967;-71
2023/10/29 13:52:20;;;;;;;;;;;13.10;92.40;;;;;;5098051;28;19956;-70
2023/10/29 13:54:52;;;;;;;;;;;13.10;92.40;;;;;;5097783;28;19931;-69
2023/10/29 13:57:21;;;;;;;;;;;13.00;92.40;;;;;;5099552;28;19928;-61
2023/10/29 13:59:55;;;;;;;;;;;13.00;92.50;;;;;;5098661;28;20395;-60
2023/10/29 14:02:39;;;;;;;;;;;13.00;92.40;;;;;;5094907;28;19924;-61
2023/10/29 14:05:12;;;;;;;;;;;13.00;92.40;;;;;;5099321;28;19977;-62
2023/10/29 14:07:46;;;;;;;;;;;13.00;92.50;;;;;;5090981;28;19931;-60
2023/10/29 14:10:20;;;;;;;;;;;13.00;92.50;;;;;;5100388;28;19959;-61
2023/10/29 14:12:55;;;;;;;;;;;13.00;92.50;;;;;;5094665;28;20402;-60
2023/10/29 14:15:29;;;;;;;;;;;13.00;92.50;;;;;;5098829;28;19928;-60
2023/10/29 14:18:03;;;;;;;;;;;13.00;92.50;;;;;;5099933;28;19928;-59
2023/10/29 14:20:38;;;;;;;;;;;13.00;92.50;;;;;;5097111;28;19928;-61
2023/10/29 14:23:11;;;;;;;;;;;13.00;92.50;;;;;;5099780;28;20015;-60
2023/10/29 14:25:46;;;;;;;;;;;13.00;92.50;;;;;;5099402;28;19943;-60
2023/10/29 14:28:21;;;;;;;;;;;12.90;92.50;;;;;;5100965;28;20379;-60
2023/10/29 14:30:55;;;;;;;;;;;12.90;92.60;;;;;;5102006;28;19935;-59
2023/10/29 14:33:28;;;;;;;;;;;12.90;92.60;;;;;;5094362;28;20377;-60
2023/10/29 14:36:01;;;;;;;;;;;12.90;92.70;;;;;;5101272;28;19967;-60
2023/10/29 14:38:35;;;;;;;;;;;12.90;92.60;;;;;;5098617;28;20462;-60
2023/10/29 14:41:07;;;;;;;;;;;12.90;92.60;;;;;;5100029;28;20388;-60
2023/10/29 14:43:42;;;;;;;;;;;12.90;92.70;;;;;;5100542;28;19953;-61
2023/10/29 14:46:16;;;;;;;;;;;12.90;92.60;;;;;;5098477;28;19934;-62
2023/10/29 14:48:49;;;;;;;;;;;12.90;92.60;;;;;;5097397;28;20384;-61
2023/10/29 14:51:21;;;;;;;;;;;12.90;92.60;;;;;;5100305;28;19932;-60
2023/10/29 14:53:55;;;;;;;;;;;12.90;92.70;;;;;;5102181;28;19931;-60
2023/10/29 14:56:27;;;;;;;;;;;12.90;92.70;;;;;;5104911;28;19970;-60